Time;durP1;ratioP1;P1;durP2;ratioP2;P2;SDS_P1;SDS_P2;PMS_P1;PMS_P2;Temp;Humidity;BMP_temperature;BMP_pressure;BME280_temperature;BME280_humidity;BME280_pressure;Samples;Min_cycle;Max_cycle;Signal;HPM_P1;HPM_P2
2022/03/15 00:00:28;;;;;;;26.73;12.02;;;;;;;;;;5052250;28;20071;-71
2022/03/15 00:02:54;;;;;;;28.15;10.68;;;;;;;;;;5051057;28;20049;-71
2022/03/15 00:05:20;;;;;;;29.20;11.77;;;;;;;;;;5051614;28;20045;-71
2022/03/15 00:07:47;;;;;;;23.55;12.07;;;;;;;;;;5068979;28;20045;-71
2022/03/15 00:10:14;;;;;;;25.42;10.85;;;;;;;;;;5033365;28;20041;-71
2022/03/15 00:12:40;;;;;;;29.27;11.80;;;;;;;;;;5050410;28;20060;-71
2022/03/15 00:15:08;;;;;;;26.63;10.50;;;;;;;;;;5068227;28;20041;-71
2022/03/15 00:17:35;;;;;;;27.20;11.23;;;;;;;;;;5050600;28;20049;-71
2022/03/15 00:20:01;;;;;;;25.27;11.52;;;;;;;;;;5068455;28;20083;-71
2022/03/15 00:22:27;;;;;;;35.95;11.85;;;;;;;;;;5051912;28;20041;-71
2022/03/15 00:24:53;;;;;;;26.08;11.50;;;;;;;;;;5069219;28;20043;-71
2022/03/15 00:27:19;;;;;;;34.83;12.40;;;;;;;;;;5051919;28;20101;-71
2022/03/15 00:29:46;;;;;;;34.22;12.95;;;;;;;;;;5051342;28;20049;-71
2022/03/15 00:32:19;;;;;;;32.40;13.88;;;;;;;;;;5067194;28;20448;-71
2022/03/15 00:34:47;;;;;;;31.85;13.30;;;;;;;;;;5066702;28;20096;-71
2022/03/15 00:37:13;;;;;;;36.15;12.77;;;;;;;;;;5045748;28;20100;-71
2022/03/15 00:39:39;;;;;;;32.10;13.70;;;;;;;;;;5048195;28;20049;-70
2022/03/15 00:42:05;;;;;;;29.02;13.23;;;;;;;;;;5047285;28;20095;-71
2022/03/15 00:44:31;;;;;;;34.47;15.40;;;;;;;;;;5048386;28;20042;-71
2022/03/15 00:46:57;;;;;;;54.13;16.65;;;;;;;;;;5046961;28;20120;-71
2022/03/15 00:49:23;;;;;;;35.25;15.27;;;;;;;;;;5045174;28;20150;-71
2022/03/15 00:51:50;;;;;;;35.40;14.45;;;;;;;;;;5046958;28;20042;-71
2022/03/15 00:54:16;;;;;;;49.35;16.92;;;;;;;;;;5046713;28;20045;-71
2022/03/15 00:56:42;;;;;;;44.22;16.08;;;;;;;;;;5048926;28;20129;-71
2022/03/15 00:59:09;;;;;;;36.53;14.48;;;;;;;;;;5049001;28;20065;-71
2022/03/15 01:01:36;;;;;;;40.90;14.90;;;;;;;;;;5048831;28;20076;-70
2022/03/15 01:04:02;;;;;;;35.50;14.30;;;;;;;;;;5047775;28;20045;-71
2022/03/15 01:06:28;;;;;;;40.30;14.57;;;;;;;;;;5031050;28;20076;-71
2022/03/15 01:08:54;;;;;;;32.25;14.20;;;;;;;;;;5048012;28;20060;-71
2022/03/15 01:11:21;;;;;;;38.00;14.77;;;;;;;;;;5046078;28;20432;-70
2022/03/15 01:13:47;;;;;;;39.83;16.75;;;;;;;;;;5046726;28;20041;-71
2022/03/15 01:16:13;;;;;;;33.03;14.07;;;;;;;;;;5050966;28;20124;-70
2022/03/15 01:18:39;;;;;;;32.13;13.00;;;;;;;;;;5050159;28;20049;-70
2022/03/15 01:21:05;;;;;;;42.65;13.95;;;;;;;;;;5051168;28;20084;-71
2022/03/15 01:23:31;;;;;;;35.55;14.65;;;;;;;;;;5051831;28;20041;-71
2022/03/15 01:25:58;;;;;;;31.58;13.50;;;;;;;;;;5048583;28;20050;-71
2022/03/15 01:28:24;;;;;;;28.67;12.48;;;;;;;;;;5048680;28;20049;-70
2022/03/15 01:30:50;;;;;;;34.13;13.85;;;;;;;;;;5046166;28;20052;-71
2022/03/15 01:33:17;;;;;;;30.13;13.95;;;;;;;;;;5046881;28;20081;-71
2022/03/15 01:35:43;;;;;;;43.85;14.88;;;;;;;;;;5048862;28;20041;-72
2022/03/15 01:38:09;;;;;;;37.35;13.90;;;;;;;;;;5068374;28;20052;-71
2022/03/15 01:40:35;;;;;;;28.52;11.68;;;;;;;;;;5067576;28;20041;-71
2022/03/15 01:43:02;;;;;;;26.58;11.50;;;;;;;;;;5067853;28;20049;-71
2022/03/15 01:45:35;;;;;;;27.45;13.18;;;;;;;;;;5050444;28;20044;-71
2022/03/15 01:48:01;;;;;;;24.92;12.00;;;;;;;;;;5066835;28;20056;-70
2022/03/15 01:50:27;;;;;;;26.63;13.10;;;;;;;;;;5070401;28;20048;-70
2022/03/15 01:52:53;;;;;;;28.55;12.88;;;;;;;;;;5054187;28;20408;-71
2022/03/15 01:55:19;;;;;;;29.02;12.88;;;;;;;;;;5035891;28;20049;-71
2022/03/15 01:57:46;;;;;;;33.95;14.00;;;;;;;;;;5071214;28;20033;-70
2022/03/15 02:00:13;;;;;;;33.08;14.27;;;;;;;;;;5053064;28;20080;-70
2022/03/15 02:02:39;;;;;;;34.67;15.13;;;;;;;;;;5070317;28;20041;-71
2022/03/15 02:05:05;;;;;;;34.72;15.23;;;;;;;;;;5069677;28;20120;-70
2022/03/15 02:07:31;;;;;;;38.22;14.63;;;;;;;;;;5052173;28;20114;-70
2022/03/15 02:09:57;;;;;;;27.27;13.40;;;;;;;;;;5052381;28;20100;-71
2022/03/15 02:12:23;;;;;;;32.20;13.23;;;;;;;;;;5035666;28;20068;-71
2022/03/15 02:14:49;;;;;;;31.15;14.18;;;;;;;;;;5070484;28;20100;-71
2022/03/15 02:17:15;;;;;;;33.10;14.80;;;;;;;;;;5070745;28;20048;-71
2022/03/15 02:19:42;;;;;;;30.60;13.68;;;;;;;;;;5052796;28;20423;-71
2022/03/15 02:22:08;;;;;;;29.73;14.13;;;;;;;;;;5053602;28;20480;-70
2022/03/15 02:24:34;;;;;;;35.03;15.05;;;;;;;;;;5071934;28;20061;-70
2022/03/15 02:27:01;;;;;;;32.88;15.50;;;;;;;;;;5055219;28;20056;-70
2022/03/15 02:29:28;;;;;;;37.85;14.68;;;;;;;;;;5071932;28;20097;-71
2022/03/15 02:31:54;;;;;;;35.05;14.45;;;;;;;;;;5072721;28;20210;-70
2022/03/15 02:34:20;;;;;;;33.45;13.90;;;;;;;;;;5072716;28;20040;-70
2022/03/15 02:36:46;;;;;;;31.45;14.80;;;;;;;;;;5072194;28;20064;-70
2022/03/15 02:39:12;;;;;;;35.50;15.88;;;;;;;;;;5051017;28;20056;-70
2022/03/15 02:41:38;;;;;;;33.20;14.65;;;;;;;;;;5050839;28;20045;-70
2022/03/15 02:44:04;;;;;;;30.55;13.73;;;;;;;;;;5050665;28;20054;-70
2022/03/15 02:46:34;;;;;;;35.42;14.10;;;;;;;;;;5068750;28;20052;-70
2022/03/15 02:49:01;;;;;;;33.67;14.85;;;;;;;;;;5051514;28;20108;-71
2022/03/15 02:51:27;;;;;;;35.63;14.00;;;;;;;;;;5069969;28;20056;-71
2022/03/15 02:53:54;;;;;;;37.45;14.43;;;;;;;;;;5071054;28;20063;-71
2022/03/15 02:56:21;;;;;;;33.92;13.02;;;;;;;;;;5053429;28;20053;-71
2022/03/15 02:58:47;;;;;;;35.85;14.25;;;;;;;;;;5072277;28;20025;-70
2022/03/15 03:01:13;;;;;;;30.13;14.68;;;;;;;;;;5071162;28;20052;-71
2022/03/15 03:03:39;;;;;;;35.30;14.75;;;;;;;;;;5069641;28;20041;-70
2022/03/15 03:06:05;;;;;;;30.33;14.20;;;;;;;;;;5067904;28;20041;-71
2022/03/15 03:08:32;;;;;;;32.22;14.45;;;;;;;;;;5069810;28;20120;-70
2022/03/15 03:10:59;;;;;;;33.15;14.68;;;;;;;;;;5068747;28;20053;-71
2022/03/15 03:13:26;;;;;;;32.40;13.60;;;;;;;;;;5069984;28;20045;-71
2022/03/15 03:15:57;;;;;;;28.45;13.90;;;;;;;;;;5054929;28;20501;-72
2022/03/15 03:18:31;;;;;;;32.90;14.85;;;;;;;;;;5073316;28;20040;-71
2022/03/15 03:20:58;;;;;;;31.92;14.80;;;;;;;;;;5072536;28;20377;-70
2022/03/15 03:23:24;;;;;;;33.78;14.80;;;;;;;;;;5071150;28;20097;-70
2022/03/15 03:25:50;;;;;;;29.75;14.05;;;;;;;;;;5067713;28;20041;-70
2022/03/15 03:28:17;;;;;;;33.95;13.95;;;;;;;;;;5067659;28;20075;-71
2022/03/15 03:30:47;;;;;;;40.25;15.40;;;;;;;;;;5051398;28;20049;-71
2022/03/15 03:33:14;;;;;;;48.35;16.00;;;;;;;;;;5069467;28;20047;-70
2022/03/15 03:35:40;;;;;;;35.42;15.32;;;;;;;;;;5051482;28;20045;-70
2022/03/15 03:38:06;;;;;;;37.65;15.55;;;;;;;;;;5068699;28;20072;-71
2022/03/15 03:40:32;;;;;;;41.33;15.65;;;;;;;;;;5033864;28;20056;-71
2022/03/15 03:42:59;;;;;;;37.60;14.65;;;;;;;;;;5050332;28;20041;-70
2022/03/15 03:45:25;;;;;;;32.17;15.30;;;;;;;;;;5066657;28;20504;-71
2022/03/15 03:47:51;;;;;;;35.17;15.35;;;;;;;;;;5050447;28;20037;-70
2022/03/15 03:50:18;;;;;;;54.70;18.73;;;;;;;;;;5069768;28;20049;-70
2022/03/15 03:52:44;;;;;;;54.55;18.45;;;;;;;;;;5068512;28;20069;-71
2022/03/15 03:55:10;;;;;;;68.95;19.80;;;;;;;;;;5066773;28;20052;-70
2022/03/15 03:57:36;;;;;;;69.90;21.15;;;;;;;;;;5048197;28;20086;-71
2022/03/15 04:00:02;;;;;;;56.15;18.90;;;;;;;;;;5066383;28;20048;-71
2022/03/15 04:02:28;;;;;;;38.53;16.77;;;;;;;;;;5066847;28;20068;-71
2022/03/15 04:04:54;;;;;;;54.95;18.48;;;;;;;;;;5048637;28;20052;-71
2022/03/15 04:07:21;;;;;;;44.65;17.30;;;;;;;;;;5066178;28;20037;-71
2022/03/15 04:09:47;;;;;;;38.15;17.85;;;;;;;;;;5048517;28;20047;-71
2022/03/15 04:12:14;;;;;;;41.28;17.23;;;;;;;;;;5065229;28;20100;-71
2022/03/15 04:14:40;;;;;;;41.95;18.73;;;;;;;;;;5065578;28;20045;-71
2022/03/15 04:17:09;;;;;;;38.25;16.90;;;;;;;;;;5066721;28;20094;-71
2022/03/15 04:19:35;;;;;;;38.83;17.60;;;;;;;;;;5051466;28;20052;-71
2022/03/15 04:22:02;;;;;;;46.88;18.75;;;;;;;;;;5069279;28;20480;-71
2022/03/15 04:24:27;;;;;;;37.22;16.83;;;;;;;;;;5051603;28;20104;-70
2022/03/15 04:26:54;;;;;;;43.40;18.60;;;;;;;;;;5068351;28;20052;-71
2022/03/15 04:29:21;;;;;;;42.72;18.33;;;;;;;;;;5067960;28;20094;-71
2022/03/15 04:31:47;;;;;;;41.83;18.90;;;;;;;;;;5067726;28;20464;-72
2022/03/15 04:34:13;;;;;;;42.35;19.35;;;;;;;;;;5051458;28;20045;-70
2022/03/15 04:36:41;;;;;;;45.15;19.77;;;;;;;;;;5068469;28;20187;-70
2022/03/15 04:39:07;;;;;;;43.05;19.73;;;;;;;;;;5071031;28;20056;-72
2022/03/15 04:41:33;;;;;;;49.28;22.33;;;;;;;;;;5068719;28;20120;-72
2022/03/15 04:43:59;;;;;;;52.20;24.00;;;;;;;;;;5049895;28;20091;-71
2022/03/15 04:46:25;;;;;;;60.03;25.30;;;;;;;;;;5067688;28;20072;-71
2022/03/15 04:48:51;;;;;;;68.13;27.85;;;;;;;;;;5049166;28;20072;-72
2022/03/15 04:51:17;;;;;;;58.03;26.80;;;;;;;;;;5048554;28;20067;-72
2022/03/15 04:53:43;;;;;;;69.70;28.05;;;;;;;;;;5049818;28;20057;-72
2022/03/15 04:56:09;;;;;;;66.35;27.00;;;;;;;;;;5068694;28;20070;-71
2022/03/15 04:58:35;;;;;;;84.32;28.30;;;;;;;;;;5070214;28;20053;-71
2022/03/15 05:01:01;;;;;;;78.32;29.77;;;;;;;;;;5070514;28;20052;-71
2022/03/15 05:03:27;;;;;;;75.10;30.08;;;;;;;;;;5069524;28;20069;-71
2022/03/15 05:05:53;;;;;;;82.55;31.20;;;;;;;;;;5036917;28;20056;-72
2022/03/15 05:08:19;;;;;;;95.65;36.10;;;;;;;;;;5068963;28;20503;-72
2022/03/15 05:13:30;;;;;;;83.90;33.72;;;;;;;;;;5050442;28;20487;-72
2022/03/15 05:15:56;;;;;;;82.85;32.97;;;;;;;;;;5068630;28;20075;-71
2022/03/15 05:18:23;;;;;;;91.03;34.58;;;;;;;;;;5050427;28;20079;-71
2022/03/15 05:20:49;;;;;;;115.22;38.65;;;;;;;;;;5074635;28;20100;-71
2022/03/15 05:23:15;;;;;;;100.72;36.72;;;;;;;;;;5073304;28;20102;-72
2022/03/15 05:25:41;;;;;;;96.35;38.17;;;;;;;;;;5052818;28;20037;-71
2022/03/15 05:28:08;;;;;;;106.13;38.20;;;;;;;;;;5049655;28;20053;-72
2022/03/15 05:30:35;;;;;;;88.53;35.90;;;;;;;;;;5066584;28;20078;-72
2022/03/15 05:33:01;;;;;;;143.00;42.95;;;;;;;;;;5047639;28;20049;-71
2022/03/15 05:35:27;;;;;;;98.28;35.33;;;;;;;;;;5047334;28;20041;-72
2022/03/15 05:37:53;;;;;;;93.88;35.40;;;;;;;;;;5063215;28;20511;-72
2022/03/15 05:40:20;;;;;;;105.82;38.28;;;;;;;;;;5066474;28;20106;-72
2022/03/15 05:42:46;;;;;;;81.88;35.08;;;;;;;;;;5046485;28;20422;-72
2022/03/15 05:45:12;;;;;;;109.97;41.47;;;;;;;;;;5063281;28;20040;-72
2022/03/15 05:47:39;;;;;;;98.63;38.72;;;;;;;;;;5047243;28;20056;-72
2022/03/15 05:50:06;;;;;;;93.30;36.05;;;;;;;;;;5063864;28;20052;-73
2022/03/15 05:52:32;;;;;;;88.78;36.92;;;;;;;;;;5062904;28;20053;-72
2022/03/15 05:54:58;;;;;;;102.40;37.55;;;;;;;;;;5065383;28;20047;-72
2022/03/15 05:57:24;;;;;;;95.28;35.70;;;;;;;;;;5065490;28;20048;-72
2022/03/15 05:59:50;;;;;;;100.75;36.30;;;;;;;;;;5047345;28;20077;-71
2022/03/15 06:02:16;;;;;;;113.43;37.53;;;;;;;;;;5048473;28;20121;-72
2022/03/15 06:04:42;;;;;;;116.43;37.83;;;;;;;;;;5065744;28;20045;-72
2022/03/15 06:07:08;;;;;;;206.63;58.10;;;;;;;;;;5047468;28;20077;-72
2022/03/15 06:09:34;;;;;;;171.68;51.08;;;;;;;;;;5064735;28;20045;-72
2022/03/15 06:12:00;;;;;;;124.43;44.45;;;;;;;;;;5065705;28;20052;-72
2022/03/15 06:14:26;;;;;;;198.32;54.53;;;;;;;;;;5064256;28;20076;-72
2022/03/15 06:16:52;;;;;;;192.07;55.60;;;;;;;;;;5067194;28;20045;-72
2022/03/15 06:19:18;;;;;;;110.15;40.58;;;;;;;;;;5048092;28;20055;-72
2022/03/15 06:21:44;;;;;;;137.45;45.17;;;;;;;;;;5066061;28;20527;-72
2022/03/15 06:24:10;;;;;;;97.32;36.28;;;;;;;;;;5066609;28;20051;-72
2022/03/15 06:26:38;;;;;;;83.70;35.00;;;;;;;;;;5066427;28;20072;-71
2022/03/15 06:29:04;;;;;;;88.13;34.35;;;;;;;;;;5064816;28;20072;-72
2022/03/15 06:31:31;;;;;;;78.88;34.72;;;;;;;;;;5060861;28;20424;-71
2022/03/15 06:33:58;;;;;;;95.22;35.75;;;;;;;;;;5061251;28;20504;-71
2022/03/15 06:36:24;;;;;;;103.25;38.00;;;;;;;;;;5060343;28;20439;-71
2022/03/15 06:38:50;;;;;;;77.85;33.25;;;;;;;;;;5061084;28;20084;-72
2022/03/15 06:41:16;;;;;;;87.30;33.95;;;;;;;;;;5042116;28;20049;-71
2022/03/15 06:43:42;;;;;;;99.63;36.55;;;;;;;;;;5058990;28;20041;-70
2022/03/15 06:46:09;;;;;;;99.78;36.50;;;;;;;;;;5039103;28;20492;-73
2022/03/15 06:48:35;;;;;;;133.85;42.25;;;;;;;;;;5054296;28;20051;-72
2022/03/15 06:51:02;;;;;;;89.55;33.70;;;;;;;;;;5037880;28;20614;-72
2022/03/15 06:53:28;;;;;;;104.53;37.08;;;;;;;;;;5061907;28;20053;-72
2022/03/15 06:55:54;;;;;;;102.03;37.78;;;;;;;;;;5064378;28;20055;-72
2022/03/15 06:58:20;;;;;;;198.77;53.10;;;;;;;;;;5065155;28;20132;-73
2022/03/15 07:00:47;;;;;;;115.57;39.47;;;;;;;;;;5064932;28;20526;-72
2022/03/15 07:03:13;;;;;;;75.55;32.95;;;;;;;;;;5047200;28;20510;-72
2022/03/15 07:05:39;;;;;;;66.32;31.13;;;;;;;;;;5063788;28;20068;-72
2022/03/15 07:08:06;;;;;;;86.40;35.55;;;;;;;;;;5062436;28;20041;-72
2022/03/15 07:10:32;;;;;;;90.32;34.83;;;;;;;;;;5063812;28;20045;-72
2022/03/15 07:12:58;;;;;;;98.38;35.55;;;;;;;;;;5062961;28;20072;-72
2022/03/15 07:15:24;;;;;;;68.80;34.17;;;;;;;;;;5061643;28;20057;-72
2022/03/15 07:17:54;;;;;;;70.10;32.58;;;;;;;;;;5061758;28;20045;-72
2022/03/15 07:20:21;;;;;;;93.53;36.30;;;;;;;;;;5064750;28;20045;-72
2022/03/15 07:22:48;;;;;;;127.30;43.10;;;;;;;;;;5064609;28;20124;-71
2022/03/15 07:25:14;;;;;;;94.57;35.67;;;;;;;;;;5061930;28;20497;-72
2022/03/15 07:27:40;;;;;;;78.40;34.33;;;;;;;;;;5060873;28;20037;-71
2022/03/15 07:30:07;;;;;;;113.38;41.75;;;;;;;;;;5060597;28;20055;-72
2022/03/15 07:32:33;;;;;;;80.50;34.13;;;;;;;;;;5043501;28;20104;-72
2022/03/15 07:34:59;;;;;;;78.65;34.55;;;;;;;;;;5043257;28;20045;-72
2022/03/15 07:37:25;;;;;;;73.70;32.60;;;;;;;;;;5061542;28;20506;-72
2022/03/15 07:39:51;;;;;;;69.40;31.92;;;;;;;;;;5062459;28;20059;-72
2022/03/15 07:42:18;;;;;;;97.88;37.15;;;;;;;;;;5061645;28;20068;-72
2022/03/15 07:44:45;;;;;;;67.85;33.17;;;;;;;;;;5062419;28;20064;-72
2022/03/15 07:47:14;;;;;;;79.88;34.80;;;;;;;;;;5061884;28;20629;-72
2022/03/15 07:49:40;;;;;;;99.38;39.25;;;;;;;;;;5056279;28;20442;-71
2022/03/15 07:52:06;;;;;;;59.58;31.20;;;;;;;;;;5035692;28;20472;-71
2022/03/15 07:54:32;;;;;;;64.55;31.58;;;;;;;;;;5057697;28;20088;-71
2022/03/15 07:56:58;;;;;;;85.13;32.78;;;;;;;;;;5056116;28;20053;-71
2022/03/15 07:59:24;;;;;;;72.35;31.13;;;;;;;;;;5056812;28;20064;-71
2022/03/15 08:01:50;;;;;;;84.97;35.92;;;;;;;;;;5056380;28;20045;-71
2022/03/15 08:04:16;;;;;;;97.95;36.25;;;;;;;;;;5038846;28;20073;-71
2022/03/15 08:06:43;;;;;;;61.10;30.73;;;;;;;;;;5056581;28;20041;-71
2022/03/15 08:09:09;;;;;;;59.60;29.80;;;;;;;;;;5056766;28;20037;-71
2022/03/15 08:11:35;;;;;;;54.10;28.08;;;;;;;;;;5056621;28;20183;-72
2022/03/15 08:14:01;;;;;;;74.40;31.42;;;;;;;;;;5056568;28;20077;-71
2022/03/15 08:16:28;;;;;;;51.63;27.15;;;;;;;;;;5060372;28;20041;-72
2022/03/15 08:18:54;;;;;;;79.53;31.95;;;;;;;;;;5065089;28;20047;-72
2022/03/15 08:21:22;;;;;;;62.33;28.10;;;;;;;;;;5064970;28;20071;-72
2022/03/15 08:23:48;;;;;;;57.90;29.42;;;;;;;;;;5064057;28;20045;-72
2022/03/15 08:26:14;;;;;;;49.53;26.27;;;;;;;;;;5044518;28;20052;-73
2022/03/15 08:28:41;;;;;;;103.25;33.22;;;;;;;;;;5045624;28;20044;-72
2022/03/15 08:31:07;;;;;;;82.88;32.53;;;;;;;;;;5061827;28;20041;-72
2022/03/15 08:33:33;;;;;;;71.88;30.08;;;;;;;;;;5060282;28;20049;-73
2022/03/15 08:35:59;;;;;;;112.28;36.22;;;;;;;;;;5043321;28;20045;-73
2022/03/15 08:38:26;;;;;;;56.83;27.00;;;;;;;;;;5062496;28;20105;-72
2022/03/15 08:40:52;;;;;;;51.65;26.45;;;;;;;;;;5044182;28;20056;-72
2022/03/15 08:43:18;;;;;;;67.22;28.50;;;;;;;;;;5044102;28;20098;-72
2022/03/15 08:45:44;;;;;;;88.22;34.10;;;;;;;;;;5062531;28;20500;-72
2022/03/15 08:48:10;;;;;;;77.28;30.92;;;;;;;;;;5027960;28;20049;-72
2022/03/15 08:50:36;;;;;;;83.05;32.00;;;;;;;;;;5060834;28;20041;-72
2022/03/15 08:53:02;;;;;;;44.50;25.42;;;;;;;;;;5058585;28;20076;-72
2022/03/15 08:55:29;;;;;;;84.75;32.17;;;;;;;;;;5058622;28;20049;-72
2022/03/15 08:57:56;;;;;;;102.07;35.30;;;;;;;;;;5058875;28;20413;-72
2022/03/15 09:00:22;;;;;;;69.78;30.92;;;;;;;;;;5058684;28;20064;-72
2022/03/15 09:02:48;;;;;;;74.95;29.73;;;;;;;;;;5038719;28;20380;-71
2022/03/15 09:05:19;;;;;;;70.40;29.08;;;;;;;;;;5056469;28;20499;-72
2022/03/15 09:07:47;;;;;;;60.00;28.35;;;;;;;;;;5056486;28;20088;-71
2022/03/15 09:10:13;;;;;;;53.83;25.88;;;;;;;;;;5038810;28;20052;-71
2022/03/15 09:12:39;;;;;;;53.17;27.58;;;;;;;;;;5055901;28;20064;-71
2022/03/15 09:15:05;;;;;;;42.88;25.65;;;;;;;;;;5056270;28;20488;-71
2022/03/15 09:17:31;;;;;;;53.13;27.42;;;;;;;;;;5056784;28;20048;-72
2022/03/15 09:19:57;;;;;;;51.65;26.33;;;;;;;;;;5057080;28;20040;-71
2022/03/15 09:22:23;;;;;;;51.22;27.05;;;;;;;;;;5044376;28;20071;-71
2022/03/15 09:24:49;;;;;;;68.35;29.17;;;;;;;;;;5063381;28;20104;-71
2022/03/15 09:27:15;;;;;;;59.25;28.45;;;;;;;;;;5062523;28;20072;-72
2022/03/15 09:29:41;;;;;;;50.92;26.17;;;;;;;;;;5062714;28;20037;-72
2022/03/15 09:32:08;;;;;;;46.35;25.05;;;;;;;;;;5060732;28;20048;-73
2022/03/15 09:34:34;;;;;;;61.78;28.50;;;;;;;;;;5044992;28;20535;-72
2022/03/15 09:37:00;;;;;;;59.65;27.02;;;;;;;;;;5063602;28;20061;-72
2022/03/15 09:39:26;;;;;;;90.53;33.67;;;;;;;;;;5044203;28;20044;-72
2022/03/15 09:41:55;;;;;;;59.10;26.40;;;;;;;;;;5046848;28;20049;-72
2022/03/15 09:44:25;;;;;;;68.18;27.98;;;;;;;;;;5064378;28;20128;-72
2022/03/15 09:46:52;;;;;;;43.08;24.23;;;;;;;;;;5029629;28;20464;-72
2022/03/15 09:49:18;;;;;;;58.10;26.92;;;;;;;;;;5059732;28;20064;-72
2022/03/15 09:51:46;;;;;;;65.60;27.50;;;;;;;;;;5058701;28;20073;-72
2022/03/15 09:54:13;;;;;;;52.38;24.92;;;;;;;;;;5059936;28;20183;-72
2022/03/15 09:56:39;;;;;;;57.45;26.80;;;;;;;;;;5043460;28;20056;-72
2022/03/15 09:59:12;;;;;;;54.65;26.05;;;;;;;;;;5060357;28;20534;-72
2022/03/15 10:01:40;;;;;;;45.80;24.02;;;;;;;;;;5063878;28;20072;-72
2022/03/15 10:04:07;;;;;;;44.38;24.88;;;;;;;;;;5062605;28;20045;-72
2022/03/15 10:06:33;;;;;;;40.83;23.27;;;;;;;;;;5063489;28;20048;-72
2022/03/15 10:08:59;;;;;;;38.08;22.63;;;;;;;;;;5059082;28;20048;-72
2022/03/15 10:11:25;;;;;;;45.97;24.42;;;;;;;;;;5036825;28;20049;-71
2022/03/15 10:13:51;;;;;;;47.80;25.95;;;;;;;;;;5054883;28;20051;-71
2022/03/15 10:16:17;;;;;;;71.47;28.30;;;;;;;;;;5054427;28;20049;-71
2022/03/15 10:18:53;;;;;;;85.40;28.85;;;;;;;;;;5054901;28;20048;-71
2022/03/15 10:21:20;;;;;;;63.53;26.45;;;;;;;;;;5058200;28;20037;-71
2022/03/15 10:23:46;;;;;;;45.85;23.85;;;;;;;;;;5064324;28;20121;-71
2022/03/15 10:26:21;;;;;;;49.35;23.90;;;;;;;;;;5061149;28;20091;-71
2022/03/15 10:28:47;;;;;;;43.47;23.30;;;;;;;;;;5055068;28;20128;-71
2022/03/15 10:31:15;;;;;;;47.13;23.05;;;;;;;;;;5041402;28;20385;-71
2022/03/15 10:33:41;;;;;;;55.47;25.75;;;;;;;;;;5034121;28;20044;-71
2022/03/15 10:36:16;;;;;;;58.20;27.02;;;;;;;;;;5068700;28;20057;-72
2022/03/15 10:38:49;;;;;;;68.95;30.25;;;;;;;;;;5067086;28;20102;-72
2022/03/15 10:41:16;;;;;;;107.75;44.95;;;;;;;;;;5069936;28;20041;-72
2022/03/15 10:43:42;;;;;;;66.13;30.17;;;;;;;;;;5067929;28;20045;-72
2022/03/15 10:46:12;;;;;;;54.90;26.80;;;;;;;;;;5065869;28;20044;-72
2022/03/15 10:48:39;;;;;;;104.68;38.78;;;;;;;;;;5070124;28;20045;-72
2022/03/15 10:51:07;;;;;;;46.50;25.60;;;;;;;;;;5074533;28;20045;-72
2022/03/15 10:53:40;;;;;;;46.00;23.65;;;;;;;;;;5073141;28;20052;-72
2022/03/15 10:56:09;;;;;;;49.78;24.67;;;;;;;;;;5071686;28;20041;-72
2022/03/15 10:58:35;;;;;;;;;;;;;;;;;;5064828;28;20044;-72
2022/03/15 11:01:01;;;;;;;86.15;31.75;;;;;;;;;;5047261;28;19927;-72
2022/03/15 11:03:29;;;;;;;66.20;25.73;;;;;;;;;;5066881;28;20083;-71
2022/03/15 11:06:03;;;;;;;32.55;19.52;;;;;;;;;;5047039;28;20045;-71
2022/03/15 11:08:29;;;;;;;68.15;26.88;;;;;;;;;;5064937;28;20147;-71
2022/03/15 11:10:56;;;;;;;52.92;24.50;;;;;;;;;;5062174;28;20057;-72
2022/03/15 11:13:29;;;;;;;50.33;23.52;;;;;;;;;;5069010;28;20048;-72
2022/03/15 11:15:56;;;;;;;38.42;21.17;;;;;;;;;;5067563;28;20072;-72
2022/03/15 11:18:24;;;;;;;42.35;22.27;;;;;;;;;;5066231;28;20041;-72
2022/03/15 11:20:53;;;;;;;37.03;21.25;;;;;;;;;;5066506;28;20100;-71
2022/03/15 11:23:19;;;;;;;;;;;;;;;;;;5066686;28;20100;-72
2022/03/15 11:25:48;;;;;;;76.05;27.38;;;;;;;;;;5066013;28;19920;-72
2022/03/15 11:28:15;;;;;;;88.93;30.33;;;;;;;;;;5065046;28;20056;-72
2022/03/15 11:30:42;;;;;;;43.45;22.63;;;;;;;;;;5065330;28;20076;-72
2022/03/15 11:33:08;;;;;;;52.60;23.00;;;;;;;;;;5066259;28;20049;-72
2022/03/15 11:35:35;;;;;;;42.22;21.13;;;;;;;;;;5064866;28;20037;-72
2022/03/15 11:38:02;;;;;;;32.90;18.17;;;;;;;;;;5062414;28;20045;-72
2022/03/15 11:40:29;;;;;;;29.25;18.10;;;;;;;;;;5059574;28;20045;-72
2022/03/15 11:43:14;;;;;;;38.55;19.80;;;;;;;;;;5023383;28;20053;-72
2022/03/15 11:45:41;;;;;;;45.08;20.05;;;;;;;;;;5058674;28;20055;-72
2022/03/15 11:48:22;;;;;;;52.67;21.83;;;;;;;;;;5055317;28;20049;-72
2022/03/15 11:50:48;;;;;;;27.15;16.98;;;;;;;;;;5056674;28;20052;-72
2022/03/15 11:53:25;;;;;;;24.83;15.95;;;;;;;;;;5037012;28;20508;-70
2022/03/15 11:55:53;;;;;;;57.67;21.65;;;;;;;;;;5060708;28;20056;-72
2022/03/15 11:58:27;;;;;;;55.20;22.77;;;;;;;;;;5060680;28;20121;-72
2022/03/15 12:00:53;;;;;;;53.90;23.27;;;;;;;;;;5062649;28;20443;-71
2022/03/15 12:03:21;;;;;;;55.85;27.35;;;;;;;;;;5059724;28;20431;-71
2022/03/15 12:05:51;;;;;;;51.75;24.95;;;;;;;;;;5059416;28;20041;-72
2022/03/15 12:08:20;;;;;;;31.10;18.42;;;;;;;;;;5060818;28;20056;-72
2022/03/15 12:10:52;;;;;;;48.83;23.35;;;;;;;;;;5027197;28;20056;-72
2022/03/15 12:13:20;;;;;;;59.83;26.70;;;;;;;;;;5060343;28;20055;-70
2022/03/15 12:15:50;;;;;;;39.75;20.30;;;;;;;;;;5056499;28;20102;-72
2022/03/15 12:21:04;;;;;;;74.82;27.55;;;;;;;;;;5052486;28;20447;-71
2022/03/15 12:23:40;;;;;;;35.60;18.13;;;;;;;;;;5052816;28;20084;-72
2022/03/15 12:26:15;;;;;;;27.23;16.98;;;;;;;;;;5052619;28;20158;-71
2022/03/15 12:28:42;;;;;;;48.75;22.20;;;;;;;;;;5052671;28;20045;-72
2022/03/15 12:31:09;;;;;;;46.65;20.77;;;;;;;;;;5053184;28;20048;-71
2022/03/15 12:33:36;;;;;;;24.77;15.93;;;;;;;;;;5052602;28;20476;-71
2022/03/15 12:36:06;;;;;;;26.92;16.50;;;;;;;;;;5052626;28;21220;-71
2022/03/15 12:38:33;;;;;;;26.48;16.73;;;;;;;;;;5035247;28;20119;-71
2022/03/15 12:41:01;;;;;;;27.27;15.70;;;;;;;;;;5038234;28;20470;-72
2022/03/15 12:43:27;;;;;;;26.58;16.05;;;;;;;;;;5056489;28;20399;-71
2022/03/15 12:45:54;;;;;;;22.95;15.23;;;;;;;;;;5056025;28;20041;-71
2022/03/15 12:48:30;;;;;;;29.45;16.90;;;;;;;;;;5056244;28;20037;-71
2022/03/15 12:50:59;;;;;;;38.58;18.05;;;;;;;;;;5056495;28;20041;-71
2022/03/15 12:53:42;;;;;;;37.38;17.23;;;;;;;;;;5056025;28;20407;-71
2022/03/15 12:56:12;;;;;;;109.22;31.10;;;;;;;;;;5038077;28;20045;-71
2022/03/15 12:58:41;;;;;;;34.78;17.38;;;;;;;;;;5056219;28;20087;-72
2022/03/15 13:01:11;;;;;;;46.03;18.80;;;;;;;;;;5056434;28;20041;-72
2022/03/15 13:03:38;;;;;;;51.25;19.20;;;;;;;;;;5056216;28;20385;-71
2022/03/15 13:06:04;;;;;;;33.63;16.60;;;;;;;;;;5038708;28;20072;-71
2022/03/15 13:08:31;;;;;;;27.35;14.48;;;;;;;;;;5056378;28;20041;-72
2022/03/15 13:11:02;;;;;;;52.22;19.90;;;;;;;;;;5056513;28;20048;-71
2022/03/15 13:13:28;;;;;;;26.73;14.75;;;;;;;;;;5056408;28;20084;-71
2022/03/15 13:16:03;;;;;;;48.92;19.83;;;;;;;;;;5056119;28;20052;-72
2022/03/15 13:18:30;;;;;;;36.90;16.60;;;;;;;;;;5056303;28;20045;-71
2022/03/15 13:21:01;;;;;;;25.75;15.00;;;;;;;;;;5055750;28;20052;-71
2022/03/15 13:23:28;;;;;;;34.22;15.70;;;;;;;;;;5037563;28;20053;-71
2022/03/15 13:25:54;;;;;;;39.50;18.27;;;;;;;;;;5055768;28;20049;-71
2022/03/15 13:28:21;;;;;;;35.20;16.90;;;;;;;;;;5055956;28;20540;-71
2022/03/15 13:30:49;;;;;;;31.08;15.65;;;;;;;;;;5056122;28;20051;-71
2022/03/15 13:33:32;;;;;;;48.13;19.88;;;;;;;;;;5037653;28;20128;-72
2022/03/15 13:36:00;;;;;;;28.55;14.27;;;;;;;;;;5037043;28;20168;-72
2022/03/15 13:38:26;;;;;;;28.88;15.10;;;;;;;;;;5055315;28;20455;-72
2022/03/15 13:40:52;;;;;;;33.60;16.98;;;;;;;;;;5055568;28;20045;-72
2022/03/15 13:43:18;;;;;;;29.90;15.60;;;;;;;;;;5037257;28;20049;-72
2022/03/15 13:45:46;;;;;;;30.77;15.90;;;;;;;;;;5055038;28;20044;-72
2022/03/15 13:48:12;;;;;;;49.88;19.40;;;;;;;;;;5055003;28;20080;-72
2022/03/15 13:50:39;;;;;;;43.83;16.77;;;;;;;;;;5053442;28;20054;-72
2022/03/15 13:53:17;;;;;;;24.33;14.43;;;;;;;;;;5055251;28;20071;-72
2022/03/15 13:55:43;;;;;;;37.47;16.70;;;;;;;;;;5037176;28;20045;-72
2022/03/15 13:58:09;;;;;;;30.38;16.02;;;;;;;;;;5054820;28;20455;-72
2022/03/15 14:00:35;;;;;;;52.33;20.73;;;;;;;;;;5037016;28;20048;-72
2022/03/15 14:03:07;;;;;;;46.35;19.63;;;;;;;;;;5054353;28;20068;-73
2022/03/15 14:05:33;;;;;;;30.15;15.60;;;;;;;;;;5037097;28;20488;-73
2022/03/15 14:08:12;;;;;;;41.30;16.73;;;;;;;;;;5036905;28;20132;-72
2022/03/15 14:10:39;;;;;;;27.67;15.15;;;;;;;;;;5054999;28;20049;-73
2022/03/15 14:13:14;;;;;;;25.90;14.60;;;;;;;;;;5054398;28;20057;-73
2022/03/15 14:15:42;;;;;;;25.23;14.15;;;;;;;;;;5054861;28;20102;-73
2022/03/15 14:18:08;;;;;;;23.37;14.00;;;;;;;;;;5036518;28;20064;-73
2022/03/15 14:20:44;;;;;;;22.08;13.75;;;;;;;;;;5054894;28;20313;-73